PWSweather.com
Personal Weather Stations
Station Observations
LW1DRJ
MorenoAR 17441

MorenoAR 17441

Lat: -34.6340099, Lon: -58.791382

Elevation: 19

Station Type: Fine Offset

http://www.lw1drj.com.ar/clima

Latest ConditionsUpdated 10:40:00 PM GMT-03:57 Wednesday, Jan 16, 2019
Currently Today's Max Today's Min Today's Average
Temperature 76.8°F24.9°C 93.7°F34.3°C 63.1°F17.3°C 74.1°F23.4°C
Dew Point 72.3°F22.4°C 76.3°F24.6°C 56.5°F13.6°C 65.4°F18.6°C
Winds Calm Calm 5.4 mph -8.7 kmh - - 1.2 mph 1.9 kmh
Wind Gusts 2.2 mph3.5 kmh 11.4 mph18.3 kmh - -
Humidity 86% 99% 30% 80%
Pressure 29.78 in1008.5 mb 29.81 in1009.5 mb 29.69 in1005.4 mb -
Precipitation - 0.01 in0.3 mm - -
Hour Temp Dew Point Humidity Winds Wind Gusts Pressure Precip Precip Rate Daily Precip Total
10:40 PM 76.8°F24.9°C 72.3°F22.4°C 86% Calm Calm 2.2 mph3.5 kmh 29.78 in1008.5 mb 0.00 in0.0 mm 0.00 in0.0 mm 0.01 in0.3 mm
10:20 PM 76.5°F24.7°C 71.6°F22.0°C 85% Calm Calm 2.2 mph3.5 kmh 29.77 in1008.1 mb 0.00 in0.0 mm 0.00 in0.0 mm 0.01 in0.3 mm
10:00 PM 77.5°F25.3°C 71.2°F21.8°C 81% Calm Calm 2.2 mph3.5 kmh 29.77 in1008.1 mb 0.00 in0.0 mm 0.00 in0.0 mm 0.01 in0.3 mm
09:40 PM 77.9°F25.5°C 71.2°F21.8°C 80% Calm Calm 3.1 mph5.0 kmh 29.76 in1007.8 mb 0.00 in0.0 mm 0.00 in0.0 mm 0.01 in0.3 mm
09:20 PM 78.8°F26.0°C 71.4°F21.9°C 78% 0.7 mph E1.1 kmh E 3.8 mph6.1 kmh 29.75 in1007.5 mb 0.00 in0.0 mm 0.00 in0.0 mm 0.01 in0.3 mm
09:00 PM 79.2°F26.2°C 70.9°F21.6°C 76% 0.7 mph E1.1 kmh E 4.5 mph7.2 kmh 29.74 in1007.1 mb 0.00 in0.0 mm 0.00 in0.0 mm 0.01 in0.3 mm
08:40 PM 80.2°F26.8°C 70.4°F21.3°C 72% 1.6 mph E2.6 kmh E 4.5 mph7.2 kmh 29.72 in1006.4 mb 0.00 in0.0 mm 0.00 in0.0 mm 0.01 in0.3 mm
08:20 PM 81.5°F27.5°C 69.5°F20.8°C 67% 0.7 mph E1.1 kmh E 6.9 mph11.1 kmh 29.71 in1006.1 mb 0.00 in0.0 mm 0.00 in0.0 mm 0.01 in0.3 mm
08:00 PM 86.4°F30.2°C 62.5°F16.9°C 45% 2.2 mph S3.5 kmh S 4.5 mph7.2 kmh 29.71 in1006.1 mb 0.00 in0.0 mm 0.00 in0.0 mm 0.01 in0.3 mm
07:40 PM 89.6°F32.0°C 60.6°F15.9°C 38% 0.7 mph WSW1.1 kmh WSW 3.8 mph6.1 kmh 29.70 in1005.8 mb 0.00 in0.0 mm 0.00 in0.0 mm 0.01 in0.3 mm
07:20 PM 91.2°F32.9°C 60.5°F15.8°C 36% 0.7 mph S1.1 kmh S 3.1 mph5.0 kmh 29.70 in1005.8 mb 0.00 in0.0 mm 0.00 in0.0 mm 0.01 in0.3 mm
07:00 PM 93.2°F34.0°C 60.7°F15.9°C 34% 2.2 mph S3.5 kmh S 4.5 mph7.2 kmh 29.69 in1005.4 mb 0.00 in0.0 mm 0.00 in0.0 mm 0.01 in0.3 mm
06:40 PM 91.9°F33.3°C 61.2°F16.2°C 36% 1.6 mph SSW2.6 kmh SSW 7.6 mph12.2 kmh 29.69 in1005.4 mb 0.00 in0.0 mm 0.00 in0.0 mm 0.01 in0.3 mm
06:20 PM 93.6°F34.2°C 61.0°F16.1°C 34% 1.6 mph S2.6 kmh S 6.0 mph9.7 kmh 29.69 in1005.4 mb 0.00 in0.0 mm 0.00 in0.0 mm 0.01 in0.3 mm
06:00 PM 93.6°F34.2°C 61.0°F16.1°C 34% 3.1 mph WSW5.0 kmh WSW 6.0 mph9.7 kmh 29.69 in1005.4 mb 0.00 in0.0 mm 0.00 in0.0 mm 0.01 in0.3 mm
05:40 PM 91.9°F33.3°C 61.2°F16.2°C 36% Calm Calm 8.3 mph13.4 kmh 29.69 in1005.4 mb 0.00 in0.0 mm 0.00 in0.0 mm 0.01 in0.3 mm
05:20 PM 93.7°F34.3°C 60.3°F15.7°C 33% 3.1 mph SW5.0 kmh SW 7.6 mph12.2 kmh 29.69 in1005.4 mb 0.00 in0.0 mm 0.00 in0.0 mm 0.01 in0.3 mm
05:00 PM 92.5°F33.6°C 56.5°F13.6°C 30% 3.1 mph W5.0 kmh W 6.0 mph9.7 kmh 29.70 in1005.8 mb 0.00 in0.0 mm 0.00 in0.0 mm 0.01 in0.3 mm
04:40 PM 92.1°F33.4°C 58.9°F14.9°C 33% 3.8 mph WSW6.1 kmh WSW 6.9 mph11.1 kmh 29.70 in1005.8 mb 0.00 in0.0 mm 0.00 in0.0 mm 0.01 in0.3 mm
04:20 PM 91.9°F33.3°C 60.4°F15.8°C 35% 1.6 mph WSW2.6 kmh WSW 8.3 mph13.4 kmh 29.71 in1006.1 mb 0.00 in0.0 mm 0.00 in0.0 mm 0.01 in0.3 mm
04:00 PM 91.8°F33.2°C 60.2°F15.7°C 35% 1.6 mph SE2.6 kmh SE 5.4 mph8.7 kmh 29.70 in1005.8 mb 0.00 in0.0 mm 0.00 in0.0 mm 0.01 in0.3 mm
03:40 PM 89.6°F32.0°C 59.9°F15.5°C 37% 2.2 mph WNW3.5 kmh WNW 7.6 mph12.2 kmh 29.72 in1006.4 mb 0.00 in0.0 mm 0.00 in0.0 mm 0.01 in0.3 mm
03:20 PM 88.9°F31.6°C 60.7°F15.9°C 39% 3.1 mph W5.0 kmh W 9.2 mph14.8 kmh 29.72 in1006.4 mb 0.00 in0.0 mm 0.00 in0.0 mm 0.01 in0.3 mm
03:08 PM 88.9°F31.6°C 60.0°F15.6°C 38% 2.2 mph W3.5 kmh W 3.8 mph6.1 kmh 29.72 in1006.4 mb 0.00 in0.0 mm 0.00 in0.0 mm 0.01 in0.3 mm
02:58 PM 89.1°F31.7°C 59.4°F15.2°C 37% 2.2 mph W3.5 kmh W 7.0 mph11.3 kmh 29.73 in1006.8 mb 0.00 in0.0 mm 0.00 in0.0 mm 0.01 in0.3 mm
02:40 PM 89.6°F32.0°C 61.4°F16.3°C 39% 3.8 mph SW6.1 kmh SW 7.6 mph12.2 kmh 29.74 in1007.1 mb 0.00 in0.0 mm 0.00 in0.0 mm 0.01 in0.3 mm
02:20 PM 87.6°F30.9°C 64.3°F17.9°C 46% 4.5 mph WSW7.2 kmh WSW 9.2 mph14.8 kmh 29.74 in1007.1 mb 0.00 in0.0 mm 0.00 in0.0 mm 0.01 in0.3 mm
02:00 PM 86.7°F30.4°C 66.4°F19.1°C 51% 1.6 mph W2.6 kmh W 6.9 mph11.1 kmh 29.75 in1007.5 mb 0.00 in0.0 mm 0.00 in0.0 mm 0.01 in0.3 mm
01:40 PM 84.2°F29.0°C 65.8°F18.8°C 54% 1.6 mph WNW2.6 kmh WNW 9.2 mph14.8 kmh 29.76 in1007.8 mb 0.00 in0.0 mm 0.00 in0.0 mm 0.01 in0.3 mm
01:20 PM 84.0°F28.9°C 66.6°F19.2°C 56% 1.6 mph W2.6 kmh W 6.9 mph11.1 kmh 29.77 in1008.1 mb 0.00 in0.0 mm 0.00 in0.0 mm 0.01 in0.3 mm
01:00 PM 82.8°F28.2°C 67.0°F19.4°C 59% 5.4 mph WSW8.7 kmh WSW 11.4 mph18.3 kmh 29.78 in1008.5 mb 0.00 in0.0 mm 0.00 in0.0 mm 0.01 in0.3 mm
12:40 PM 82.9°F28.3°C 69.5°F20.8°C 64% 0.7 mph W1.1 kmh W 9.2 mph14.8 kmh 29.80 in1009.1 mb 0.00 in0.0 mm 0.00 in0.0 mm 0.01 in0.3 mm
12:20 PM 82.9°F28.3°C 69.5°F20.8°C 64% 1.6 mph WSW2.6 kmh WSW 6.9 mph11.1 kmh 29.80 in1009.1 mb 0.00 in0.0 mm 0.00 in0.0 mm 0.01 in0.3 mm
12:00 PM 82.2°F27.9°C 70.6°F21.4°C 68% 0.7 mph WSW1.1 kmh WSW 6.0 mph9.7 kmh 29.80 in1009.1 mb 0.00 in0.0 mm 0.00 in0.0 mm 0.01 in0.3 mm
11:40 AM 80.8°F27.1°C 70.1°F21.2°C 70% 2.2 mph WNW3.5 kmh WNW 6.9 mph11.1 kmh 29.80 in1009.1 mb 0.00 in0.0 mm 0.00 in0.0 mm 0.01 in0.3 mm
11:20 AM 80.8°F27.1°C 73.7°F23.2°C 79% 2.2 mph WSW3.5 kmh WSW 6.9 mph11.1 kmh 29.81 in1009.5 mb 0.01 in0.3 mm 0.00 in0.0 mm 0.01 in0.3 mm
11:00 AM 78.4°F25.8°C 72.1°F22.3°C 81% 1.6 mph NW2.6 kmh NW 6.0 mph9.7 kmh 29.80 in1009.1 mb 0.01 in0.3 mm 0.00 in0.0 mm 0.01 in0.3 mm
10:40 AM 77.5°F25.3°C 75.0°F23.9°C 92% 2.2 mph WSW3.5 kmh WSW 5.4 mph8.7 kmh 29.80 in1009.1 mb 0.01 in0.3 mm 0.03 in0.8 mm 0.01 in0.3 mm
10:20 AM 76.6°F24.8°C 76.3°F24.6°C 99% 3.1 mph WSW5.0 kmh WSW 6.0 mph9.7 kmh 29.80 in1009.1 mb 0.00 in0.0 mm 0.00 in0.0 mm 0.00 in0.0 mm
10:00 AM 73.6°F23.1°C 73.3°F22.9°C 99% 1.6 mph NW2.6 kmh NW 5.4 mph8.7 kmh 29.80 in1009.1 mb 0.00 in0.0 mm 0.00 in0.0 mm 0.00 in0.0 mm
09:40 AM 71.2°F21.8°C 70.9°F21.6°C 99% 3.1 mph W5.0 kmh W 5.4 mph8.7 kmh 29.81 in1009.5 mb 0.00 in0.0 mm 0.00 in0.0 mm 0.00 in0.0 mm
09:20 AM 70.0°F21.1°C 69.7°F20.9°C 99% 1.6 mph WSW2.6 kmh WSW 3.1 mph5.0 kmh 29.80 in1009.1 mb 0.00 in0.0 mm 0.00 in0.0 mm 0.00 in0.0 mm
09:00 AM 68.4°F20.2°C 68.1°F20.1°C 99% 0.7 mph SSW1.1 kmh SSW 3.8 mph6.1 kmh 29.80 in1009.1 mb 0.00 in0.0 mm 0.00 in0.0 mm 0.00 in0.0 mm
08:40 AM 66.9°F19.4°C 66.6°F19.2°C 99% Calm Calm 3.1 mph5.0 kmh 29.80 in1009.1 mb 0.00 in0.0 mm 0.00 in0.0 mm 0.00 in0.0 mm
08:20 AM 66.2°F19.0°C 65.9°F18.8°C 99% Calm Calm 1.6 mph2.6 kmh 29.79 in1008.8 mb 0.00 in0.0 mm 0.00 in0.0 mm 0.00 in0.0 mm
08:00 AM 65.8°F18.8°C 65.6°F18.7°C 99% Calm Calm 3.1 mph5.0 kmh 29.79 in1008.8 mb 0.00 in0.0 mm 0.00 in0.0 mm 0.00 in0.0 mm
07:40 AM 66.0°F18.9°C 65.7°F18.7°C 99% Calm Calm 1.6 mph2.6 kmh 29.79 in1008.8 mb 0.00 in0.0 mm 0.00 in0.0 mm 0.00 in0.0 mm
07:20 AM 65.5°F18.6°C 65.2°F18.4°C 99% Calm Calm 0.7 mph1.1 kmh 29.78 in1008.5 mb 0.00 in0.0 mm 0.00 in0.0 mm 0.00 in0.0 mm
06:58 AM 63.7°F17.6°C 63.4°F17.4°C 99% Calm Calm 1.6 mph2.6 kmh 29.77 in1008.1 mb 0.00 in0.0 mm 0.00 in0.0 mm 0.00 in0.0 mm
06:48 AM 63.9°F17.7°C 63.6°F17.6°C 99% Calm Calm 1.6 mph2.6 kmh 29.77 in1008.1 mb 0.00 in0.0 mm 0.00 in0.0 mm 0.00 in0.0 mm
06:38 AM 64.2°F17.9°C 63.9°F17.7°C 99% Calm Calm 0.7 mph1.1 kmh 29.77 in1008.1 mb 0.00 in0.0 mm 0.00 in0.0 mm 0.00 in0.0 mm
06:28 AM 63.3°F17.4°C 63.0°F17.2°C 99% Calm Calm 4.5 mph7.2 kmh 29.76 in1007.8 mb 0.00 in0.0 mm 0.00 in0.0 mm 0.00 in0.0 mm
06:18 AM 64.0°F17.8°C 63.8°F17.7°C 99% 1.6 mph SW2.6 kmh SW 4.5 mph7.2 kmh 29.76 in1007.8 mb 0.00 in0.0 mm 0.00 in0.0 mm 0.00 in0.0 mm
06:08 AM 63.5°F17.5°C 63.2°F17.3°C 99% 1.6 mph W2.6 kmh W 3.8 mph6.1 kmh 29.75 in1007.5 mb 0.00 in0.0 mm 0.00 in0.0 mm 0.00 in0.0 mm
05:58 AM 63.9°F17.7°C 63.6°F17.6°C 99% 0.7 mph SW1.1 kmh SW 3.1 mph5.0 kmh 29.75 in1007.5 mb 0.00 in0.0 mm 0.00 in0.0 mm 0.00 in0.0 mm
05:48 AM 63.1°F17.3°C 62.9°F17.2°C 99% Calm Calm 1.6 mph2.6 kmh 29.75 in1007.5 mb 0.00 in0.0 mm 0.00 in0.0 mm 0.00 in0.0 mm
05:38 AM 63.7°F17.6°C 63.4°F17.4°C 99% Calm Calm 3.1 mph5.0 kmh 29.75 in1007.5 mb 0.00 in0.0 mm 0.00 in0.0 mm 0.00 in0.0 mm
05:28 AM 63.7°F17.6°C 63.4°F17.4°C 99% 1.6 mph SW2.6 kmh SW 3.1 mph5.0 kmh 29.75 in1007.5 mb 0.00 in0.0 mm 0.00 in0.0 mm 0.00 in0.0 mm
05:18 AM 64.2°F17.9°C 63.9°F17.7°C 99% Calm Calm 2.2 mph3.5 kmh 29.74 in1007.1 mb 0.00 in0.0 mm 0.00 in0.0 mm 0.00 in0.0 mm
05:08 AM 64.4°F18.0°C 64.1°F17.8°C 99% Calm Calm 1.6 mph2.6 kmh 29.74 in1007.1 mb 0.00 in0.0 mm 0.00 in0.0 mm 0.00 in0.0 mm
04:58 AM 63.5°F17.5°C 63.2°F17.3°C 99% 0.7 mph SW1.1 kmh SW 1.6 mph2.6 kmh 29.73 in1006.8 mb 0.00 in0.0 mm 0.00 in0.0 mm 0.00 in0.0 mm
04:48 AM 64.2°F17.9°C 63.9°F17.7°C 99% Calm Calm 2.2 mph3.5 kmh 29.73 in1006.8 mb 0.00 in0.0 mm 0.00 in0.0 mm 0.00 in0.0 mm
04:38 AM 64.4°F18.0°C 64.1°F17.8°C 99% Calm Calm 2.2 mph3.5 kmh 29.73 in1006.8 mb 0.00 in0.0 mm 0.00 in0.0 mm 0.00 in0.0 mm
04:28 AM 64.4°F18.0°C 64.1°F17.8°C 99% Calm Calm 1.6 mph2.6 kmh 29.73 in1006.8 mb 0.00 in0.0 mm 0.00 in0.0 mm 0.00 in0.0 mm
04:18 AM 64.2°F17.9°C 63.9°F17.7°C 99% Calm Calm 3.8 mph6.1 kmh 29.73 in1006.8 mb 0.00 in0.0 mm 0.00 in0.0 mm 0.00 in0.0 mm
04:08 AM 63.9°F17.7°C 63.6°F17.6°C 99% 2.2 mph SW3.5 kmh SW 3.8 mph6.1 kmh 29.73 in1006.8 mb 0.00 in0.0 mm 0.00 in0.0 mm 0.00 in0.0 mm
03:58 AM 64.0°F17.8°C 63.8°F17.7°C 99% 1.6 mph SW2.6 kmh SW 4.5 mph7.2 kmh 29.73 in1006.8 mb 0.00 in0.0 mm 0.00 in0.0 mm 0.00 in0.0 mm
03:48 AM 64.6°F18.1°C 64.3°F17.9°C 99% 2.2 mph SW3.5 kmh SW 4.5 mph7.2 kmh 29.73 in1006.8 mb 0.00 in0.0 mm 0.00 in0.0 mm 0.00 in0.0 mm
03:38 AM 64.9°F18.3°C 64.7°F18.2°C 99% Calm Calm 3.8 mph6.1 kmh 29.73 in1006.8 mb 0.00 in0.0 mm 0.00 in0.0 mm 0.00 in0.0 mm
03:28 AM 65.3°F18.5°C 65.0°F18.3°C 99% 0.7 mph SW1.1 kmh SW 3.8 mph6.1 kmh 29.73 in1006.8 mb 0.00 in0.0 mm 0.00 in0.0 mm 0.00 in0.0 mm
03:18 AM 64.8°F18.2°C 64.5°F18.1°C 99% 1.6 mph SW2.6 kmh SW 3.8 mph6.1 kmh 29.73 in1006.8 mb 0.00 in0.0 mm 0.00 in0.0 mm 0.00 in0.0 mm
03:08 AM 65.1°F18.4°C 64.8°F18.2°C 99% 1.6 mph WSW2.6 kmh WSW 3.1 mph5.0 kmh 29.73 in1006.8 mb 0.00 in0.0 mm 0.00 in0.0 mm 0.00 in0.0 mm
02:58 AM 65.5°F18.6°C 65.2°F18.4°C 99% 1.6 mph SW2.6 kmh SW 3.1 mph5.0 kmh 29.73 in1006.8 mb 0.00 in0.0 mm 0.00 in0.0 mm 0.00 in0.0 mm
02:48 AM 64.4°F18.0°C 64.1°F17.8°C 99% 0.7 mph SW1.1 kmh SW 3.1 mph5.0 kmh 29.73 in1006.8 mb 0.00 in0.0 mm 0.00 in0.0 mm 0.00 in0.0 mm
02:38 AM 65.7°F18.7°C 65.4°F18.6°C 99% 0.7 mph SW1.1 kmh SW 2.2 mph3.5 kmh 29.73 in1006.8 mb 0.00 in0.0 mm 0.00 in0.0 mm 0.00 in0.0 mm
02:28 AM 65.5°F18.6°C 65.2°F18.4°C 99% Calm Calm 1.6 mph2.6 kmh 29.74 in1007.1 mb 0.00 in0.0 mm 0.00 in0.0 mm 0.00 in0.0 mm
02:18 AM 64.9°F18.3°C 64.7°F18.2°C 99% 0.7 mph SW1.1 kmh SW 3.8 mph6.1 kmh 29.74 in1007.1 mb 0.00 in0.0 mm 0.00 in0.0 mm 0.00 in0.0 mm
02:08 AM 65.7°F18.7°C 65.4°F18.6°C 99% 1.6 mph SW2.6 kmh SW 3.8 mph6.1 kmh 29.75 in1007.5 mb 0.00 in0.0 mm 0.00 in0.0 mm 0.00 in0.0 mm
01:58 AM 65.1°F18.4°C 64.8°F18.2°C 99% 1.6 mph SW2.6 kmh SW 3.1 mph5.0 kmh 29.75 in1007.5 mb 0.00 in0.0 mm 0.00 in0.0 mm 0.00 in0.0 mm
01:48 AM 65.7°F18.7°C 65.4°F18.6°C 99% Calm Calm 2.2 mph3.5 kmh 29.75 in1007.5 mb 0.00 in0.0 mm 0.00 in0.0 mm 0.00 in0.0 mm
01:38 AM 65.5°F18.6°C 65.2°F18.4°C 99% 0.7 mph SW1.1 kmh SW 3.8 mph6.1 kmh 29.75 in1007.5 mb 0.00 in0.0 mm 0.00 in0.0 mm 0.00 in0.0 mm
01:28 AM 65.3°F18.5°C 65.0°F18.3°C 99% 2.2 mph SW3.5 kmh SW 3.8 mph6.1 kmh 29.76 in1007.8 mb 0.00 in0.0 mm 0.00 in0.0 mm 0.00 in0.0 mm
01:18 AM 66.4°F19.1°C 66.1°F18.9°C 99% 1.6 mph W2.6 kmh W 3.8 mph6.1 kmh 29.76 in1007.8 mb 0.00 in0.0 mm 0.00 in0.0 mm 0.00 in0.0 mm
01:08 AM 66.0°F18.9°C 65.7°F18.7°C 99% Calm Calm 4.5 mph7.2 kmh 29.76 in1007.8 mb 0.00 in0.0 mm 0.00 in0.0 mm 0.00 in0.0 mm
12:58 AM 65.8°F18.8°C 65.6°F18.7°C 99% 1.6 mph SW2.6 kmh SW 4.5 mph7.2 kmh 29.76 in1007.8 mb 0.00 in0.0 mm 0.00 in0.0 mm 0.00 in0.0 mm
12:48 AM 66.6°F19.2°C 66.3°F19.1°C 99% 0.7 mph SW1.1 kmh SW 2.2 mph3.5 kmh 29.75 in1007.5 mb 0.00 in0.0 mm 0.00 in0.0 mm 0.00 in0.0 mm
12:38 AM 66.2°F19.0°C 65.9°F18.8°C 99% 0.7 mph S1.1 kmh S 1.6 mph2.6 kmh 29.75 in1007.5 mb 0.00 in0.0 mm 0.00 in0.0 mm 0.00 in0.0 mm
12:28 AM 66.4°F19.1°C 66.1°F18.9°C 99% Calm Calm 2.2 mph3.5 kmh 29.75 in1007.5 mb 0.00 in0.0 mm 0.00 in0.0 mm 0.00 in0.0 mm
12:18 AM 66.6°F19.2°C 66.3°F19.1°C 99% 1.6 mph SW2.6 kmh SW 3.8 mph6.1 kmh 29.76 in1007.8 mb 0.00 in0.0 mm 0.00 in0.0 mm 0.00 in0.0 mm
12:08 AM 66.6°F19.2°C 66.3°F19.1°C 99% 1.6 mph W2.6 kmh W 3.8 mph6.1 kmh 29.76 in1007.8 mb 0.00 in0.0 mm 0.00 in0.0 mm 0.00 in0.0 mm